createdAt,value
2019-01-16T00:00:25.662Z,79.40
2019-01-16T00:03:01.080Z,79.40
2019-01-16T00:05:35.065Z,79.40
2019-01-16T00:08:22.477Z,79.50
2019-01-16T00:11:05.653Z,79.60
2019-01-16T00:13:37.824Z,79.70
2019-01-16T00:16:09.041Z,80.00
2019-01-16T00:18:40.586Z,80.00
2019-01-16T00:21:17.330Z,80.00
2019-01-16T00:24:04.193Z,80.00
2019-01-16T00:26:50.211Z,80.10
2019-01-16T00:29:21.522Z,80.20
2019-01-16T00:31:55.195Z,80.10
2019-01-16T00:34:26.532Z,80.20
2019-01-16T00:37:06.880Z,80.10
2019-01-16T00:39:38.101Z,80.20
2019-01-16T00:42:18.580Z,80.10
2019-01-16T00:44:52.420Z,80.10
2019-01-16T00:47:32.768Z,80.10
2019-01-16T00:53:08.025Z,80.00
2019-01-16T00:55:39.398Z,80.10
2019-01-16T00:58:20.524Z,80.00
2019-01-16T01:00:51.842Z,80.00
2019-01-16T01:03:26.002Z,80.00
2019-01-16T01:05:57.258Z,79.90
2019-01-16T01:08:31.673Z,79.60
2019-01-16T01:11:05.833Z,79.50
2019-01-16T01:13:53.584Z,79.40
2019-01-16T01:16:24.843Z,79.40
2019-01-16T01:19:12.138Z,79.20
2019-01-16T01:21:49.345Z,79.20
2019-01-16T01:24:36.577Z,78.90
2019-01-16T01:27:23.857Z,78.90
2019-01-16T01:29:55.234Z,78.80
2019-01-16T01:32:41.729Z,79.00
2019-01-16T01:35:15.734Z,79.00
2019-01-16T01:37:47.028Z,78.80
2019-01-16T01:40:23.794Z,78.80
2019-01-16T01:43:10.965Z,79.50
2019-01-16T01:45:45.197Z,78.70
2019-01-16T01:48:39.738Z,78.70
2019-01-16T01:51:05.893Z,78.70
2019-01-16T01:53:37.309Z,78.60
2019-01-16T01:56:11.468Z,78.60
2019-01-16T01:58:58.589Z,78.50
2019-01-16T02:01:45.657Z,78.40
2019-01-16T02:04:17.027Z,78.40
2019-01-16T02:07:00.409Z,78.40
2019-01-16T02:09:31.662Z,78.30
2019-01-16T02:12:15.491Z,78.30
2019-01-16T02:14:59.065Z,78.30
2019-01-16T02:17:46.328Z,78.30
2019-01-16T02:20:20.274Z,78.10
2019-01-16T02:22:51.587Z,78.30
2019-01-16T02:25:22.817Z,78.20
2019-01-16T02:27:54.127Z,78.30
2019-01-16T02:30:25.391Z,78.20
2019-01-16T02:33:11.958Z,78.30
2019-01-16T02:35:43.215Z,78.30
2019-01-16T02:38:17.340Z,78.30
2019-01-16T02:40:48.553Z,78.60
2019-01-16T02:43:28.564Z,78.60
2019-01-16T02:46:02.996Z,78.60
2019-01-16T02:48:34.244Z,78.70
2019-01-16T02:51:09.241Z,78.70
2019-01-16T02:53:43.026Z,78.80
2019-01-16T02:56:16.817Z,78.90
2019-01-16T02:58:48.094Z,79.00
2019-01-16T03:01:22.196Z,79.00
2019-01-16T03:04:05.082Z,79.10
2019-01-16T03:07:00.205Z,79.20
2019-01-16T03:09:31.417Z,79.20
2019-01-16T03:12:20.564Z,79.30
2019-01-16T03:15:06.960Z,79.40
2019-01-16T03:17:47.334Z,79.40
2019-01-16T03:20:21.280Z,79.40
2019-01-16T03:23:08.907Z,79.40
2019-01-16T03:25:40.141Z,79.30
2019-01-16T03:28:26.071Z,79.30
2019-01-16T03:31:03.032Z,79.30
2019-01-16T03:33:37.092Z,79.30
2019-01-16T03:36:08.643Z,79.20
2019-01-16T03:38:48.634Z,79.10
2019-01-16T03:41:19.893Z,79.10
2019-01-16T03:43:54.204Z,79.10
2019-01-16T03:46:37.250Z,79.10
2019-01-16T03:49:15.011Z,79.10
2019-01-16T03:51:46.232Z,79.10
2019-01-16T03:54:17.460Z,79.10
2019-01-16T03:57:04.532Z,79.10
2019-01-16T03:59:35.820Z,79.00
2019-01-16T04:02:07.147Z,79.10
2019-01-16T04:04:47.102Z,79.10
2019-01-16T04:07:18.705Z,79.10
2019-01-16T04:09:56.282Z,79.00
2019-01-16T04:12:27.561Z,78.90
2019-01-16T04:15:10.418Z,78.90
2019-01-16T04:17:44.523Z,78.80
2019-01-16T04:23:15.789Z,78.70
2019-01-16T04:25:47.103Z,78.50
2019-01-16T04:28:30.441Z,78.40
2019-01-16T04:31:16.747Z,78.20
2019-01-16T04:34:06.226Z,78.20
2019-01-16T04:36:52.630Z,78.20
2019-01-16T04:39:35.789Z,78.00
2019-01-16T04:42:09.892Z,78.00
2019-01-16T04:44:41.298Z,78.70
2019-01-16T04:47:15.381Z,77.90
2019-01-16T04:50:02.908Z,77.90
2019-01-16T04:52:34.313Z,77.80
2019-01-16T04:55:22.666Z,77.60
2019-01-16T04:57:59.589Z,77.80
2019-01-16T05:00:45.581Z,78.10
2019-01-16T05:03:16.837Z,78.20
2019-01-16T05:05:57.185Z,78.30
2019-01-16T05:08:34.326Z,78.30
2019-01-16T05:11:05.580Z,78.30
2019-01-16T05:13:36.793Z,78.30
2019-01-16T05:16:10.855Z,78.30
2019-01-16T05:18:43.165Z,78.40
2019-01-16T05:21:23.494Z,78.40
2019-01-16T05:23:57.524Z,78.50
2019-01-16T05:26:43.604Z,78.30
2019-01-16T05:29:29.835Z,78.30
2019-01-16T05:32:03.649Z,78.30
2019-01-16T05:34:49.706Z,78.30
2019-01-16T05:37:29.590Z,78.30
2019-01-16T05:40:03.880Z,78.40
2019-01-16T05:42:38.068Z,78.50
2019-01-16T05:45:15.570Z,78.50
2019-01-16T05:47:49.822Z,78.80
2019-01-16T05:50:27.167Z,78.80
2019-01-16T05:53:07.537Z,78.80
2019-01-16T05:55:44.443Z,78.80
2019-01-16T05:58:19.746Z,78.80
2019-01-16T06:00:53.785Z,79.00
2019-01-16T06:03:41.257Z,79.10
2019-01-16T06:06:18.541Z,79.20
2019-01-16T06:08:49.873Z,79.20
2019-01-16T06:11:21.164Z,79.10
2019-01-16T06:14:01.301Z,79.10
2019-01-16T06:16:47.504Z,79.10
2019-01-16T06:19:27.865Z,79.00
2019-01-16T06:22:17.113Z,78.90
2019-01-16T06:24:48.414Z,78.80
2019-01-16T06:27:29.569Z,78.80
2019-01-16T06:30:00.916Z,78.80
2019-01-16T06:32:38.293Z,78.80
2019-01-16T06:35:09.627Z,78.90
2019-01-16T06:37:49.644Z,78.80
2019-01-16T06:40:20.985Z,78.90
2019-01-16T06:42:55.213Z,78.60
2019-01-16T06:45:32.362Z,78.60
2019-01-16T06:48:03.812Z,78.60
2019-01-16T06:50:47.157Z,78.50
2019-01-16T06:53:33.712Z,78.50
2019-01-16T06:56:21.010Z,78.60
2019-01-16T06:59:04.286Z,78.60
2019-01-16T07:01:35.625Z,78.50
2019-01-16T07:04:18.817Z,78.40
2019-01-16T07:06:53.681Z,78.60
2019-01-16T07:09:41.339Z,78.70
2019-01-16T07:12:21.172Z,78.80
2019-01-16T07:14:56.098Z,79.00
2019-01-16T07:17:27.363Z,78.90
2019-01-16T07:20:09.616Z,78.90
2019-01-16T07:22:37.405Z,78.70
2019-01-16T07:25:11.551Z,78.70
2019-01-16T07:27:45.610Z,78.60
2019-01-16T07:30:16.861Z,78.50
2019-01-16T07:32:48.271Z,78.50
2019-01-16T07:35:22.644Z,78.20
2019-01-16T07:38:06.588Z,78.20
2019-01-16T07:40:40.405Z,78.00
2019-01-16T07:43:27.898Z,78.20
2019-01-16T07:46:07.914Z,78.30
2019-01-16T07:48:48.310Z,77.90
2019-01-16T07:51:19.737Z,77.90
2019-01-16T07:53:56.745Z,77.80
2019-01-16T07:56:40.661Z,77.70
2019-01-16T07:59:12.658Z,77.40
2019-01-16T08:01:59.300Z,77.40
2019-01-16T08:04:36.249Z,77.20
2019-01-16T08:07:07.553Z,77.20
2019-01-16T08:09:41.719Z,77.20
2019-01-16T08:12:13.906Z,77.30
2019-01-16T08:14:55.261Z,77.20
2019-01-16T08:17:32.533Z,76.80
2019-01-16T08:20:15.647Z,76.50
2019-01-16T08:22:47.981Z,76.10
2019-01-16T08:25:28.210Z,75.80
2019-01-16T08:27:59.493Z,75.80
2019-01-16T08:30:39.978Z,75.80
2019-01-16T08:33:16.857Z,75.90
2019-01-16T08:35:48.109Z,75.60
2019-01-16T08:38:22.166Z,75.70
2019-01-16T08:40:56.350Z,75.70
2019-01-16T08:43:27.649Z,75.50
2019-01-16T08:46:16.721Z,75.40
2019-01-16T08:48:53.638Z,75.20
2019-01-16T08:51:27.750Z,75.30
2019-01-16T08:54:07.718Z,75.20
2019-01-16T08:56:44.994Z,75.10
2019-01-16T08:59:34.448Z,75.00
2019-01-16T09:02:05.756Z,74.70
2019-01-16T09:04:49.281Z,74.70
2019-01-16T09:07:20.580Z,74.50
2019-01-16T09:09:58.321Z,74.30
2019-01-16T09:12:35.616Z,74.40
2019-01-16T09:15:21.206Z,74.40
2019-01-16T09:17:58.450Z,74.20
2019-01-16T09:20:41.790Z,74.60
2019-01-16T09:23:16.036Z,73.70
2019-01-16T09:25:47.466Z,73.70
2019-01-16T09:28:27.634Z,73.80
2019-01-16T09:31:02.661Z,73.90
2019-01-16T09:33:37.729Z,73.60
2019-01-16T09:36:08.988Z,73.30
2019-01-16T09:38:47.114Z,73.00
2019-01-16T09:41:18.535Z,72.90
2019-01-16T09:43:55.491Z,72.60
2019-01-16T09:46:26.848Z,72.40
2019-01-16T09:49:13.181Z,72.70
2019-01-16T09:52:00.562Z,72.10
2019-01-16T09:54:34.746Z,72.10
2019-01-16T09:57:09.003Z,72.20
2019-01-16T09:59:43.512Z,72.40
2019-01-16T10:02:27.076Z,72.20
2019-01-16T10:04:58.310Z,72.40
2019-01-16T10:07:32.501Z,71.70
2019-01-16T10:10:15.578Z,71.60
2019-01-16T10:12:46.901Z,71.30
2019-01-16T10:15:36.430Z,71.20
2019-01-16T10:18:22.430Z,71.30
2019-01-16T10:20:56.213Z,70.80
2019-01-16T10:23:30.933Z,70.90
2019-01-16T10:26:02.214Z,70.40
2019-01-16T10:28:34.209Z,70.50
2019-01-16T10:31:05.465Z,70.00
2019-01-16T10:33:48.916Z,69.60
2019-01-16T10:36:29.247Z,69.50
2019-01-16T10:39:03.557Z,69.30
2019-01-16T10:44:42.252Z,69.50
2019-01-16T10:47:28.922Z,69.30
2019-01-16T10:50:03.962Z,69.50
2019-01-16T10:52:38.934Z,69.40
2019-01-16T10:55:16.718Z,69.10
2019-01-16T10:57:59.890Z,69.40
2019-01-16T11:00:36.855Z,69.30
2019-01-16T11:03:14.050Z,69.30
2019-01-16T11:05:48.268Z,69.20
2019-01-16T11:08:25.266Z,69.00
2019-01-16T11:11:03.291Z,69.10
2019-01-16T11:13:40.429Z,68.80
2019-01-16T11:16:12.419Z,68.40
2019-01-16T11:18:49.394Z,69.20
2019-01-16T11:21:29.720Z,68.60
2019-01-16T11:24:01.313Z,68.20
2019-01-16T11:26:47.441Z,68.20
2019-01-16T11:29:24.328Z,68.30
2019-01-16T11:31:58.581Z,68.20
2019-01-16T11:34:46.122Z,68.40
2019-01-16T11:37:23.669Z,68.60
2019-01-16T11:40:04.898Z,68.40
2019-01-16T11:42:42.955Z,68.40
2019-01-16T11:48:13.837Z,67.70
2019-01-16T11:50:51.103Z,67.60
2019-01-16T11:53:34.289Z,67.60
2019-01-16T11:56:08.579Z,67.20
2019-01-16T11:58:43.078Z,67.10
2019-01-16T12:01:30.629Z,67.00
2019-01-16T12:04:20.101Z,67.10
2019-01-16T12:06:57.504Z,67.20
2019-01-16T12:09:45.207Z,67.20
2019-01-16T12:12:16.466Z,67.20
2019-01-16T12:14:47.716Z,67.00
2019-01-16T12:17:31.133Z,67.40
2019-01-16T12:20:19.378Z,67.30
2019-01-16T12:22:50.706Z,67.00
2019-01-16T12:25:27.971Z,66.50
2019-01-16T12:28:15.595Z,66.30
2019-01-16T12:30:53.569Z,67.40
2019-01-16T12:33:24.825Z,66.50
2019-01-16T12:35:56.110Z,66.30
2019-01-16T12:38:42.652Z,66.30
2019-01-16T12:41:29.752Z,66.30
2019-01-16T12:44:12.892Z,66.40
2019-01-16T12:46:54.086Z,66.60
2019-01-16T12:49:42.487Z,66.10
2019-01-16T12:52:30.156Z,65.80
2019-01-16T12:55:17.440Z,65.90
2019-01-16T12:58:04.910Z,65.80
2019-01-16T13:00:42.254Z,65.70
2019-01-16T13:03:28.611Z,65.00
2019-01-16T13:06:11.790Z,64.80
2019-01-16T13:08:45.925Z,64.90
2019-01-16T13:11:29.808Z,64.70
2019-01-16T13:14:01.072Z,64.30
2019-01-16T13:16:32.386Z,64.90
2019-01-16T13:19:03.637Z,64.40
2019-01-16T13:21:52.794Z,64.60
2019-01-16T13:24:40.175Z,65.00
2019-01-16T13:27:14.486Z,64.70
2019-01-16T13:29:57.814Z,64.60
2019-01-16T13:32:47.089Z,64.80
2019-01-16T13:35:30.118Z,64.80
2019-01-16T13:38:16.526Z,64.60
2019-01-16T13:40:53.709Z,64.40
2019-01-16T13:43:39.931Z,64.10
2019-01-16T13:46:20.176Z,64.20
2019-01-16T13:49:06.866Z,64.00
2019-01-16T13:51:38.119Z,64.10
2019-01-16T13:54:21.233Z,64.10
2019-01-16T13:57:08.680Z,63.80
2019-01-16T13:59:54.712Z,63.80
2019-01-16T14:02:38.146Z,64.00
2019-01-16T14:05:09.481Z,64.00
2019-01-16T14:07:56.897Z,64.10
2019-01-16T14:10:28.157Z,64.30
2019-01-16T14:12:59.661Z,64.50
2019-01-16T14:15:45.663Z,64.60
2019-01-16T14:18:25.500Z,64.80
2019-01-16T14:21:13.104Z,64.70
2019-01-16T14:23:47.350Z,64.30
2019-01-16T14:26:30.465Z,64.50
2019-01-16T14:29:04.567Z,64.20
2019-01-16T14:31:52.404Z,64.10
2019-01-16T14:34:26.669Z,63.90
2019-01-16T14:37:15.086Z,64.00
2019-01-16T14:39:52.364Z,64.00
2019-01-16T14:42:27.006Z,64.20
2019-01-16T14:45:14.737Z,64.30
2019-01-16T14:47:48.849Z,64.50
2019-01-16T14:50:28.897Z,64.10
2019-01-16T14:53:00.254Z,64.30
2019-01-16T14:55:34.961Z,64.50
2019-01-16T14:58:06.436Z,64.90
2019-01-16T15:00:37.705Z,65.00
2019-01-16T15:03:20.861Z,64.90
2019-01-16T15:05:57.925Z,64.90
2019-01-16T15:08:32.228Z,65.00
2019-01-16T15:11:15.190Z,65.10
2019-01-16T15:13:46.867Z,64.90
2019-01-16T15:16:21.133Z,64.80
2019-01-16T15:18:52.545Z,64.80
2019-01-16T15:21:23.894Z,64.80
2019-01-16T15:24:11.140Z,65.00
2019-01-16T15:26:57.558Z,65.10
2019-01-16T15:29:45.001Z,65.30
2019-01-16T15:32:33.209Z,65.30
2019-01-16T15:35:13.313Z,66.10
2019-01-16T15:37:53.702Z,65.60
2019-01-16T15:40:41.481Z,65.70
2019-01-16T15:43:24.624Z,66.00
2019-01-16T15:45:58.797Z,66.50
2019-01-16T15:48:39.015Z,66.50
2019-01-16T15:51:29.129Z,66.60
2019-01-16T15:54:00.380Z,66.70
2019-01-16T15:59:22.817Z,67.10
2019-01-16T16:01:57.194Z,67.40
2019-01-16T16:04:28.509Z,67.60
2019-01-16T16:07:15.866Z,67.80
2019-01-16T16:09:47.130Z,67.60
2019-01-16T16:12:21.114Z,67.70
2019-01-16T16:15:04.084Z,67.70
2019-01-16T16:17:44.336Z,67.90
2019-01-16T16:20:24.555Z,68.00
2019-01-16T16:23:01.795Z,68.10
2019-01-16T16:25:35.728Z,68.30
2019-01-16T16:28:21.741Z,68.60
2019-01-16T16:31:01.574Z,68.60
2019-01-16T16:33:41.578Z,69.50
2019-01-16T16:36:30.809Z,68.90
2019-01-16T16:39:18.193Z,69.10
2019-01-16T16:41:52.274Z,69.10
2019-01-16T16:44:23.681Z,69.20
2019-01-16T16:47:04.038Z,69.30
2019-01-16T16:49:38.309Z,69.50
2019-01-16T16:52:26.065Z,69.60
2019-01-16T16:55:06.180Z,69.60
2019-01-16T16:57:40.373Z,69.80
2019-01-16T17:00:16.600Z,69.90
2019-01-16T17:02:47.858Z,69.90
2019-01-16T17:05:25.121Z,70.00
2019-01-16T17:07:59.085Z,70.10
2019-01-16T17:13:24.621Z,70.10
2019-01-16T17:16:12.511Z,70.30
2019-01-16T17:18:43.893Z,70.40
2019-01-16T17:21:21.103Z,70.50
2019-01-16T17:24:04.290Z,70.60
2019-01-16T17:26:51.777Z,70.60
2019-01-16T17:29:28.801Z,70.70
2019-01-16T17:32:05.848Z,70.80
2019-01-16T17:34:37.566Z,70.80
2019-01-16T17:37:20.906Z,71.00
2019-01-16T17:39:52.201Z,71.10
2019-01-16T17:42:32.429Z,71.20
2019-01-16T17:45:03.686Z,71.30
2019-01-16T17:47:46.886Z,71.40
2019-01-16T17:50:30.221Z,71.60
2019-01-16T17:53:01.446Z,71.70
2019-01-16T17:55:47.915Z,71.80
2019-01-16T17:58:31.369Z,71.90
2019-01-16T18:01:06.426Z,71.90
2019-01-16T18:03:46.785Z,72.00
2019-01-16T18:06:18.752Z,72.10
2019-01-16T18:09:07.956Z,72.50
2019-01-16T18:11:39.367Z,72.60
2019-01-16T18:14:10.834Z,72.70
2019-01-16T18:17:00.420Z,72.90
2019-01-16T18:19:34.233Z,72.90
2019-01-16T18:22:21.884Z,72.80
2019-01-16T18:24:59.160Z,72.90
2019-01-16T18:27:30.565Z,72.90
2019-01-16T18:30:18.469Z,73.10
2019-01-16T18:32:52.652Z,73.00
2019-01-16T18:35:24.174Z,72.90
2019-01-16T18:37:58.241Z,73.00
2019-01-16T18:40:29.473Z,72.90
2019-01-16T18:43:03.849Z,73.00
2019-01-16T18:45:44.470Z,73.90
2019-01-16T18:48:15.734Z,73.10
2019-01-16T18:50:46.987Z,73.00
2019-01-16T18:53:18.382Z,73.10
2019-01-16T18:55:55.581Z,73.10
2019-01-16T18:58:26.842Z,73.10
2019-01-16T19:01:10.245Z,73.10
2019-01-16T19:03:41.497Z,73.00
2019-01-16T19:06:16.477Z,73.00
2019-01-16T19:09:02.650Z,72.90
2019-01-16T19:11:49.861Z,72.80
2019-01-16T19:14:26.934Z,72.70
2019-01-16T19:17:01.562Z,72.70
2019-01-16T19:19:35.731Z,72.60
2019-01-16T19:22:15.665Z,72.60
2019-01-16T19:25:03.086Z,72.60
2019-01-16T19:27:34.371Z,72.50
2019-01-16T19:30:08.608Z,72.50
2019-01-16T19:32:39.831Z,72.60
2019-01-16T19:35:27.190Z,72.50
2019-01-16T19:38:02.002Z,72.40
2019-01-16T19:40:49.520Z,72.40
2019-01-16T19:43:23.375Z,72.40
2019-01-16T19:46:00.155Z,72.40
2019-01-16T19:48:31.482Z,72.40
2019-01-16T19:51:02.740Z,72.40
2019-01-16T19:53:34.705Z,72.40
2019-01-16T19:56:06.108Z,72.40
2019-01-16T19:58:43.030Z,72.40
2019-01-16T20:01:16.812Z,72.40
2019-01-16T20:03:59.981Z,72.40
2019-01-16T20:06:31.221Z,72.40
2019-01-16T20:09:14.342Z,72.40
2019-01-16T20:12:03.681Z,72.40
2019-01-16T20:14:37.411Z,72.30
2019-01-16T20:17:08.777Z,72.30
2019-01-16T20:19:57.873Z,72.20
2019-01-16T20:22:31.902Z,72.30
2019-01-16T20:25:05.994Z,72.20
2019-01-16T20:27:53.849Z,72.20
2019-01-16T20:30:40.968Z,72.30
2019-01-16T20:33:15.059Z,72.30
2019-01-16T20:35:52.258Z,72.30
2019-01-16T20:38:23.489Z,72.30
2019-01-16T20:41:06.817Z,72.30
2019-01-16T20:43:41.038Z,72.40
2019-01-16T20:46:21.497Z,72.50
2019-01-16T20:48:55.616Z,73.30
2019-01-16T20:51:32.746Z,72.60
2019-01-16T20:54:19.125Z,72.70
2019-01-16T20:56:53.112Z,72.80
2019-01-16T20:59:27.157Z,73.00
2019-01-16T21:02:04.363Z,72.90
2019-01-16T21:04:44.476Z,72.80
2019-01-16T21:07:21.742Z,72.90
2019-01-16T21:09:59.221Z,72.90
2019-01-16T21:12:39.102Z,72.80
2019-01-16T21:15:12.596Z,72.80
2019-01-16T21:17:43.856Z,72.80
2019-01-16T21:20:15.084Z,72.80
2019-01-16T21:22:49.986Z,72.70
2019-01-16T21:25:30.004Z,72.70
2019-01-16T21:28:19.138Z,72.60
2019-01-16T21:30:59.095Z,72.60
2019-01-16T21:33:48.441Z,72.60
2019-01-16T21:36:20.408Z,72.60
2019-01-16T21:39:03.536Z,72.50
2019-01-16T21:41:44.838Z,72.50
2019-01-16T21:44:21.727Z,72.60
2019-01-16T21:47:09.823Z,72.60
2019-01-16T21:49:52.836Z,72.70
2019-01-16T21:52:29.774Z,72.70
2019-01-16T21:55:09.913Z,73.60
2019-01-16T21:57:52.924Z,72.80
2019-01-16T22:00:40.499Z,72.80
2019-01-16T22:03:27.984Z,73.00
2019-01-16T22:06:07.934Z,73.10
2019-01-16T22:08:39.348Z,73.10
2019-01-16T22:11:25.454Z,73.20
2019-01-16T22:13:56.700Z,74.00
2019-01-16T22:16:33.769Z,73.30
2019-01-16T22:19:19.854Z,73.30
2019-01-16T22:21:57.030Z,73.40
2019-01-16T22:24:31.013Z,73.60
2019-01-16T22:27:02.230Z,73.80
2019-01-16T22:29:33.489Z,73.80
2019-01-16T22:32:10.673Z,73.80
2019-01-16T22:34:59.865Z,73.90
2019-01-16T22:37:34.025Z,73.80
2019-01-16T22:40:22.638Z,73.70
2019-01-16T22:43:05.691Z,73.70
2019-01-16T22:45:52.054Z,73.50
2019-01-16T22:48:29.773Z,73.40
2019-01-16T22:51:18.845Z,73.20
2019-01-16T22:54:02.080Z,73.30
2019-01-16T22:56:33.378Z,73.10
2019-01-16T22:59:07.429Z,73.00
2019-01-16T23:01:50.593Z,73.00
2019-01-16T23:04:22.229Z,73.70
2019-01-16T23:06:53.865Z,72.80
2019-01-16T23:09:25.134Z,72.80
2019-01-16T23:11:56.344Z,72.70
2019-01-16T23:14:30.252Z,72.60
2019-01-16T23:17:01.614Z,72.60
2019-01-16T23:19:50.217Z,73.30
2019-01-16T23:22:24.204Z,72.40
2019-01-16T23:25:01.318Z,72.40
2019-01-16T23:27:47.486Z,72.40
2019-01-16T23:30:34.813Z,72.40
2019-01-16T23:33:06.189Z,72.40
2019-01-16T23:35:37.942Z,72.30
2019-01-16T23:38:14.708Z,72.40
2019-01-16T23:40:46.027Z,72.40
2019-01-16T23:43:23.065Z,72.40
2019-01-16T23:45:56.998Z,72.40
2019-01-16T23:48:28.248Z,72.40
2019-01-16T23:51:08.433Z,72.30
2019-01-16T23:53:39.690Z,72.20
2019-01-16T23:56:22.767Z,72.10
2019-01-16T23:59:10.236Z,72.00
